Time,TemperatureF,DewpointF,PressureIn,WindDirection,WindDirectionDegrees,WindSpeedMPH,WindSpeedGustMPH,Humidity,HourlyPrecipIn,Conditions,Clouds,dailyrainin,SoftwareType,DateUTC
2013-02-24 01:52:00,70.0,68.0,29.88,SSW,205,0.0,-999.0,94,-99.99,,,-99.99,,2013-02-24 06:52:00,
2013-02-24 02:01:00,70.0,68.0,29.88,SSW,205,0.0,-999.0,94,-99.99,,,-99.99,,2013-02-24 07:01:00,
2013-02-24 02:12:00,70.0,68.0,29.88,SSW,205,0.0,-999.0,94,-99.99,,,-99.99,,2013-02-24 07:12:00,
2013-02-24 02:21:00,70.0,68.0,29.88,SSW,193,0.0,-999.0,94,-99.99,,,-99.99,,2013-02-24 07:21:00,
2013-02-24 02:32:00,70.0,68.0,29.88,SSW,193,0.0,-999.0,94,-99.99,,,-99.99,,2013-02-24 07:32:00,
2013-02-24 02:42:00,70.0,68.0,29.88,SSW,193,0.0,-999.0,94,-99.99,,,-99.99,,2013-02-24 07:42:00,
2013-02-24 02:52:00,69.0,67.0,29.87,SW,216,0.0,-999.0,94,-99.99,,,-99.99,,2013-02-24 07:52:00,
2013-02-24 03:01:00,69.0,67.0,29.87,SW,216,0.0,-999.0,94,-99.99,,,-99.99,,2013-02-24 08:01:00,
2013-02-24 03:11:00,69.0,67.0,29.87,SW,216,0.0,-999.0,94,-99.99,,,-99.99,,2013-02-24 08:11:00,
2013-02-24 03:22:00,69.0,68.0,29.86,SSW,192,0.0,-999.0,95,-99.99,,,-99.99,,2013-02-24 08:22:00,
2013-02-24 03:32:00,69.0,68.0,29.86,SSW,192,0.0,-999.0,95,-99.99,,,-99.99,,2013-02-24 08:32:00,
2013-02-24 03:42:00,69.0,68.0,29.86,SSW,192,0.0,-999.0,95,-99.99,,,-99.99,,2013-02-24 08:42:00,
2013-02-24 03:54:00,68.0,67.0,29.85,WSW,246,0.0,-999.0,95,-99.99,,,-99.99,,2013-02-24 08:54:00,
2013-02-24 04:01:00,68.0,67.0,29.85,WSW,246,0.0,-999.0,95,-99.99,,,-99.99,,2013-02-24 09:01:00,
2013-02-24 04:11:00,68.0,67.0,29.85,WSW,246,0.0,-999.0,95,-99.99,,,-99.99,,2013-02-24 09:11:00,
2013-02-24 04:21:00,68.0,67.0,29.85,South,174,1.0,-999.0,96,-99.99,,,-99.99,,2013-02-24 09:21:00,
2013-02-24 04:32:00,68.0,67.0,29.85,South,174,1.0,-999.0,96,-99.99,,,-99.99,,2013-02-24 09:32:00,
2013-02-24 04:42:00,68.0,67.0,29.85,South,174,1.0,-999.0,96,-99.99,,,-99.99,,2013-02-24 09:42:00,
2013-02-24 04:52:00,67.0,66.0,29.86,SW,227,0.0,-999.0,96,-99.99,,,-99.99,,2013-02-24 09:52:00,
2013-02-24 05:00:00,67.0,66.0,29.87,SW,216,0.0,-999.0,96,-99.99,,,-99.99,,2013-02-24 10:00:00,
2013-02-24 05:01:00,67.0,66.0,29.86,SW,227,0.0,-999.0,96,-99.99,,,-99.99,,2013-02-24 10:01:00,
2013-02-24 05:11:00,67.0,66.0,29.86,SW,227,0.0,-999.0,96,-99.99,,,-99.99,,2013-02-24 10:11:00,
2013-02-24 05:21:00,67.0,66.0,29.87,SW,216,0.0,-999.0,96,-99.99,,,-99.99,,2013-02-24 10:21:00,
2013-02-24 05:32:00,67.0,66.0,29.87,SW,216,0.0,-999.0,96,-99.99,,,-99.99,,2013-02-24 10:32:00,
2013-02-24 05:42:00,67.0,66.0,29.87,SW,216,0.0,-999.0,96,-99.99,,,-99.99,,2013-02-24 10:42:00,
2013-02-24 05:52:00,67.0,66.0,29.87,SW,216,0.0,-999.0,96,-99.99,,,-99.99,,2013-02-24 10:52:00,
2013-02-24 10:53:00,73.0,70.0,29.93,SW,226,1.0,-999.0,90,-99.99,,,-99.99,,2013-02-24 15:53:00,
2013-02-24 11:02:00,73.0,70.0,29.93,SW,226,1.0,-999.0,90,-99.99,,,-99.99,,2013-02-24 16:02:00,
2013-02-24 11:12:00,73.0,70.0,29.93,SW,226,1.0,-999.0,90,-99.99,,,-99.99,,2013-02-24 16:12:00,
2013-02-24 11:21:00,74.0,70.0,29.93,WSW,254,1.0,-999.0,88,-99.99,,,-99.99,,2013-02-24 16:21:00,
2013-02-24 11:32:00,74.0,70.0,29.93,WSW,254,1.0,-999.0,88,-99.99,,,-99.99,,2013-02-24 16:32:00,
2013-02-24 11:42:00,74.0,70.0,29.93,WSW,254,1.0,-999.0,88,-99.99,,,-99.99,,2013-02-24 16:42:00,
2013-02-24 11:52:00,75.0,70.0,29.93,SW,233,1.0,-999.0,85,-99.99,,,-99.99,,2013-02-24 16:52:00,
2013-02-24 12:01:00,75.0,70.0,29.93,SW,233,1.0,-999.0,85,-99.99,,,-99.99,,2013-02-24 17:01:00,
2013-02-24 12:11:00,75.0,70.0,29.93,SW,233,1.0,-999.0,85,-99.99,,,-99.99,,2013-02-24 17:11:00,
2013-02-24 12:22:00,74.0,71.0,29.93,NNW,340,2.0,-999.0,89,-99.99,,,-99.99,,2013-02-24 17:22:00,
2013-02-24 12:32:00,74.0,71.0,29.93,NNW,340,2.0,-999.0,89,-99.99,,,-99.99,,2013-02-24 17:32:00,
2013-02-24 12:42:00,74.0,71.0,29.93,NNW,340,2.0,-999.0,89,-99.99,,,-99.99,,2013-02-24 17:42:00,
2013-02-24 12:53:00,72.0,70.0,29.93,NW,319,0.0,-999.0,94,-99.99,,,-99.99,,2013-02-24 17:53:00,
2013-02-24 13:02:00,72.0,70.0,29.93,NW,319,0.0,-999.0,94,-99.99,,,-99.99,,2013-02-24 18:02:00,
2013-02-24 13:11:00,72.0,70.0,29.93,NW,319,0.0,-999.0,94,-99.99,,,-99.99,,2013-02-24 18:11:00,
2013-02-24 13:22:00,72.0,70.0,29.92,NW,322,1.0,-999.0,95,-99.99,,,-99.99,,2013-02-24 18:22:00,
2013-02-24 13:32:00,72.0,70.0,29.92,NW,322,1.0,-999.0,95,-99.99,,,-99.99,,2013-02-24 18:32:00,
2013-02-24 13:42:00,72.0,70.0,29.92,NW,322,1.0,-999.0,95,-99.99,,,-99.99,,2013-02-24 18:42:00,
2013-02-24 13:52:00,72.0,70.0,29.91,WNW,289,1.0,-999.0,95,-99.99,,,-99.99,,2013-02-24 18:52:00,
2013-02-24 14:01:00,72.0,70.0,29.91,WNW,289,1.0,-999.0,95,-99.99,,,-99.99,,2013-02-24 19:01:00,
2013-02-24 14:12:00,72.0,70.0,29.91,WNW,289,1.0,-999.0,95,-99.99,,,-99.99,,2013-02-24 19:12:00,
2013-02-24 14:22:00,73.0,71.0,29.91,WNW,288,0.0,5.0,93,-99.99,,,-99.99,,2013-02-24 19:22:00,
2013-02-24 14:32:00,73.0,71.0,29.91,WNW,288,0.0,5.0,93,-99.99,,,-99.99,,2013-02-24 19:32:00,
2013-02-24 14:42:00,73.0,71.0,29.91,WNW,288,0.0,5.0,93,-99.99,,,-99.99,,2013-02-24 19:42:00,
2013-02-24 14:52:00,73.0,69.0,29.90,WNW,285,2.0,5.0,88,-99.99,,,-99.99,,2013-02-24 19:52:00,
2013-02-24 15:02:00,73.0,69.0,29.90,WNW,285,2.0,5.0,88,-99.99,,,-99.99,,2013-02-24 20:02:00,
2013-02-24 15:11:00,73.0,69.0,29.90,WNW,285,2.0,5.0,88,-99.99,,,-99.99,,2013-02-24 20:11:00,
2013-02-24 15:21:00,73.0,70.0,29.89,WSW,257,0.0,2.0,89,0.29,,,-99.99,,2013-02-24 20:21:00,
2013-02-24 15:32:00,73.0,70.0,29.89,WSW,257,0.0,2.0,89,0.29,,,-99.99,,2013-02-24 20:32:00,
2013-02-24 15:42:00,73.0,70.0,29.89,WSW,257,0.0,2.0,89,0.29,,,-99.99,,2013-02-24 20:42:00,
2013-02-24 15:52:00,73.0,69.0,29.90,West,261,0.0,5.0,88,0.36,,,-99.99,,2013-02-24 20:52:00,
2013-02-24 16:02:00,73.0,69.0,29.90,West,261,0.0,5.0,88,0.36,,,-99.99,,2013-02-24 21:02:00,
2013-02-24 16:11:00,73.0,69.0,29.90,West,261,0.0,5.0,88,0.36,,,-99.99,,2013-02-24 21:11:00,
2013-02-24 16:21:00,73.0,69.0,29.90,East,82,2.0,8.0,87,0.17,,,-99.99,,2013-02-24 21:21:00,
2013-02-24 16:32:00,73.0,69.0,29.90,East,82,2.0,8.0,87,0.17,,,-99.99,,2013-02-24 21:32:00,
2013-02-24 16:42:00,73.0,69.0,29.90,East,82,2.0,8.0,87,0.17,,,-99.99,,2013-02-24 21:42:00,
2013-02-24 16:52:00,69.0,66.0,29.90,East,80,3.0,11.0,91,0.08,,,-99.99,,2013-02-24 21:52:00,
2013-02-24 17:01:00,69.0,66.0,29.90,East,80,3.0,11.0,91,0.08,,,-99.99,,2013-02-24 22:01:00,
2013-02-24 17:11:00,69.0,66.0,29.90,East,80,3.0,11.0,91,0.08,,,-99.99,,2013-02-24 22:11:00,
2013-02-24 17:22:00,69.0,66.0,29.90,East,79,4.0,6.0,90,0.00,,,-99.99,,2013-02-24 22:22:00,
2013-02-24 17:32:00,69.0,66.0,29.90,East,79,4.0,6.0,90,0.00,,,-99.99,,2013-02-24 22:32:00,
2013-02-24 17:42:00,69.0,66.0,29.90,East,79,4.0,6.0,90,0.00,,,-99.99,,2013-02-24 22:42:00,
2013-02-24 17:52:00,69.0,66.0,29.90,ENE,59,0.0,6.0,90,0.00,,,-99.99,,2013-02-24 22:52:00,
2013-02-24 18:02:00,69.0,66.0,29.90,ENE,59,0.0,6.0,90,0.00,,,-99.99,,2013-02-24 23:02:00,
2013-02-24 18:11:00,69.0,66.0,29.90,ENE,59,0.0,6.0,90,0.00,,,-99.99,,2013-02-24 23:11:00,
2013-02-24 18:21:00,68.0,65.0,29.90,NE,37,2.0,6.0,91,0.00,,,-99.99,,2013-02-24 23:21:00,
2013-02-24 18:32:00,68.0,65.0,29.90,NE,37,2.0,6.0,91,0.00,,,-99.99,,2013-02-24 23:32:00,
2013-02-24 18:42:00,68.0,65.0,29.90,NE,37,2.0,6.0,91,0.00,,,-99.99,,2013-02-24 23:42:00,
2013-02-24 18:52:00,68.0,65.0,29.91,ENE,66,0.0,2.0,91,0.00,,,-99.99,,2013-02-24 23:52:00,
2013-02-24 19:00:00,67.0,64.0,29.91,ENE,64,1.0,2.0,91,0.00,,,-99.99,,2013-02-25 00:00:00,
2013-02-24 19:01:00,68.0,65.0,29.91,ENE,66,0.0,2.0,91,0.00,,,-99.99,,2013-02-25 00:01:00,
2013-02-24 19:11:00,68.0,65.0,29.91,ENE,66,0.0,2.0,91,0.00,,,-99.99,,2013-02-25 00:11:00,
2013-02-24 19:21:00,67.0,64.0,29.91,ENE,64,1.0,2.0,91,0.00,,,-99.99,,2013-02-25 00:21:00,
2013-02-24 19:32:00,67.0,64.0,29.91,ENE,64,1.0,2.0,91,0.00,,,-99.99,,2013-02-25 00:32:00,
2013-02-24 19:42:00,67.0,64.0,29.91,ENE,64,1.0,2.0,91,0.00,,,-99.99,,2013-02-25 00:42:00,
2013-02-24 19:52:00,67.0,64.0,29.91,ENE,64,1.0,2.0,91,0.00,,,-99.99,,2013-02-25 00:52:00,
2013-02-24 23:52:00,65.0,64.0,29.92,NE,47,0.0,0.0,96,0.00,,,-99.99,,2013-02-25 04:52:00,